100LL.CA
Aviation Fuel Pricing for Canadians
Please upgrade your browser - Tested with IE9, FireFox, Chrome, Safari

Fuel Airports Other Help
Prices Economy Info List METAR/TAF Kneeboard Help

Reference Airport: SASKATOON/JOHN G. DIEFENBAKER INTL, SK
N 52 10 15  W 106 42 00
Provinces to show:

CYXE SASKATOON/JOHN G. DIEFENBAKER INTL, SK
WEATHER
METARCYXE 131800Z 30010G19KT 15SM SCT130 BKN300 14/01 A2973 RMK AC3CI3 SLP086 DENSITY ALT 2200FT
TAFTAF AMD CYXE 131902Z 1319/1418 30012KT P6SM FEW080 SCT120 TEMPO 1319/1402 30020G30KT BKN070 BKN100 FM140200 32012G22KT P6SM SKC BECMG 1404/1406 34006KT FM141000 30005KT P6SM BKN100 BKN180 BKN250 RMK NXT FCST BY 140000Z
OTHER SITES

FlightAware

FltPlan

Google Maps

SkyVector
FUEL
FBO 100LL
member
100LL
public
JETA MOGAS
Esso/Lockhart (2022-06-09)2.7302.100
  Note: Esso Pumps - http://yxe.lockhartaviation.com/fuel.php
Kreos (2022-06-07)2.5042.680
  Note: $75 Ramp Fee even for a fuel stop
Canada Flight Supplement - CYXE
(opens in new tab/window)


Please Send Updates!

Desktop Version ]  [ Mobile Version ]  [ Disclaimer ]